sensor_id;sensor_type;location;lat;lon;timestamp;temperature;humidity
67054;SHT31;53960;51.826;5.850;2024-01-30T00:00:04;8.78;95.04
67054;SHT31;53960;51.826;5.850;2024-01-30T00:02:30;8.71;95.17
67054;SHT31;53960;51.826;5.850;2024-01-30T00:04:56;8.68;95.21
67054;SHT31;53960;51.826;5.850;2024-01-30T00:07:21;8.67;95.18
67054;SHT31;53960;51.826;5.850;2024-01-30T00:09:47;8.69;95.12
67054;SHT31;53960;51.826;5.850;2024-01-30T00:12:13;8.64;95.28
67054;SHT31;53960;51.826;5.850;2024-01-30T00:14:38;8.61;95.22
67054;SHT31;53960;51.826;5.850;2024-01-30T00:17:06;8.68;95.17
67054;SHT31;53960;51.826;5.850;2024-01-30T00:19:31;8.65;94.98
67054;SHT31;53960;51.826;5.850;2024-01-30T00:21:57;8.55;95.25
67054;SHT31;53960;51.826;5.850;2024-01-30T00:24:22;8.57;95.23
67054;SHT31;53960;51.826;5.850;2024-01-30T00:26:47;8.54;95.33
67054;SHT31;53960;51.826;5.850;2024-01-30T00:29:13;8.53;95.45
67054;SHT31;53960;51.826;5.850;2024-01-30T00:31:44;8.54;95.35
67054;SHT31;53960;51.826;5.850;2024-01-30T00:34:09;8.58;95.10
67054;SHT31;53960;51.826;5.850;2024-01-30T00:36:35;8.55;95.07
67054;SHT31;53960;51.826;5.850;2024-01-30T00:39:00;8.55;95.05
67054;SHT31;53960;51.826;5.850;2024-01-30T00:41:26;8.54;94.99
67054;SHT31;53960;51.826;5.850;2024-01-30T00:43:51;8.65;94.77
67054;SHT31;53960;51.826;5.850;2024-01-30T00:46:17;8.61;94.73
67054;SHT31;53960;51.826;5.850;2024-01-30T00:48:42;8.60;94.68
67054;SHT31;53960;51.826;5.850;2024-01-30T00:51:08;8.64;94.60
67054;SHT31;53960;51.826;5.850;2024-01-30T00:53:33;8.69;94.31
67054;SHT31;53960;51.826;5.850;2024-01-30T00:55:58;8.71;94.08
67054;SHT31;53960;51.826;5.850;2024-01-30T00:58:24;8.74;94.02
67054;SHT31;53960;51.826;5.850;2024-01-30T01:00:49;8.67;94.20
67054;SHT31;53960;51.826;5.850;2024-01-30T01:03:15;8.69;94.05
67054;SHT31;53960;51.826;5.850;2024-01-30T01:05:40;8.71;94.01
67054;SHT31;53960;51.826;5.850;2024-01-30T01:08:06;8.65;94.06
67054;SHT31;53960;51.826;5.850;2024-01-30T01:10:31;8.65;94.09
67054;SHT31;53960;51.826;5.850;2024-01-30T01:12:56;8.69;93.92
67054;SHT31;53960;51.826;5.850;2024-01-30T01:15:22;8.69;93.77
67054;SHT31;53960;51.826;5.850;2024-01-30T01:17:47;8.65;93.84
67054;SHT31;53960;51.826;5.850;2024-01-30T01:20:13;8.68;93.77
67054;SHT31;53960;51.826;5.850;2024-01-30T01:22:38;8.64;93.74
67054;SHT31;53960;51.826;5.850;2024-01-30T01:25:04;8.63;93.88
67054;SHT31;53960;51.826;5.850;2024-01-30T01:27:32;8.64;93.71
67054;SHT31;53960;51.826;5.850;2024-01-30T01:29:59;8.72;93.60
67054;SHT31;53960;51.826;5.850;2024-01-30T01:32:24;8.68;93.56
67054;SHT31;53960;51.826;5.850;2024-01-30T01:34:49;8.69;93.45
67054;SHT31;53960;51.826;5.850;2024-01-30T01:37:15;8.64;93.49
67054;SHT31;53960;51.826;5.850;2024-01-30T01:39:40;8.68;93.42
67054;SHT31;53960;51.826;5.850;2024-01-30T01:42:06;8.68;93.42
67054;SHT31;53960;51.826;5.850;2024-01-30T01:44:31;8.63;93.61
67054;SHT31;53960;51.826;5.850;2024-01-30T01:46:57;8.60;93.46
67054;SHT31;53960;51.826;5.850;2024-01-30T01:49:25;8.63;93.59
67054;SHT31;53960;51.826;5.850;2024-01-30T01:51:54;8.60;93.46
67054;SHT31;53960;51.826;5.850;2024-01-30T01:54:22;8.63;93.41
67054;SHT31;53960;51.826;5.850;2024-01-30T01:56:48;8.65;93.31
67054;SHT31;53960;51.826;5.850;2024-01-30T01:59:14;8.68;93.07
67054;SHT31;53960;51.826;5.850;2024-01-30T02:01:40;8.68;93.21
67054;SHT31;53960;51.826;5.850;2024-01-30T02:04:07;8.64;93.13
67054;SHT31;53960;51.826;5.850;2024-01-30T02:06:33;8.67;93.04
67054;SHT31;53960;51.826;5.850;2024-01-30T02:08:59;8.69;92.87
67054;SHT31;53960;51.826;5.850;2024-01-30T02:11:24;8.74;92.73
67054;SHT31;53960;51.826;5.850;2024-01-30T02:13:50;8.74;92.74
67054;SHT31;53960;51.826;5.850;2024-01-30T02:16:15;8.81;92.50
67054;SHT31;53960;51.826;5.850;2024-01-30T02:18:42;8.85;92.35
67054;SHT31;53960;51.826;5.850;2024-01-30T02:21:10;8.78;92.47
67054;SHT31;53960;51.826;5.850;2024-01-30T02:23:36;8.85;92.23
67054;SHT31;53960;51.826;5.850;2024-01-30T02:26:01;8.86;92.07
67054;SHT31;53960;51.826;5.850;2024-01-30T02:28:27;8.88;92.09
67054;SHT31;53960;51.826;5.850;2024-01-30T02:30:55;8.89;91.92
67054;SHT31;53960;51.826;5.850;2024-01-30T02:33:20;8.81;92.10
67054;SHT31;53960;51.826;5.850;2024-01-30T02:35:47;8.82;92.15
67054;SHT31;53960;51.826;5.850;2024-01-30T02:38:12;8.77;92.26
67054;SHT31;53960;51.826;5.850;2024-01-30T02:40:38;8.78;92.22
67054;SHT31;53960;51.826;5.850;2024-01-30T02:43:04;8.69;92.56
67054;SHT31;53960;51.826;5.850;2024-01-30T02:45:29;8.74;92.53
67054;SHT31;53960;51.826;5.850;2024-01-30T02:47:54;8.71;92.59
67054;SHT31;53960;51.826;5.850;2024-01-30T02:50:20;8.72;92.44
67054;SHT31;53960;51.826;5.850;2024-01-30T02:52:46;8.69;92.55
67054;SHT31;53960;51.826;5.850;2024-01-30T02:55:11;8.72;92.51
67054;SHT31;53960;51.826;5.850;2024-01-30T02:57:37;8.69;92.55
67054;SHT31;53960;51.826;5.850;2024-01-30T03:00:03;8.75;92.41
67054;SHT31;53960;51.826;5.850;2024-01-30T03:02:30;8.72;92.45
67054;SHT31;53960;51.826;5.850;2024-01-30T03:04:56;8.67;92.43
67054;SHT31;53960;51.826;5.850;2024-01-30T03:07:21;8.69;92.48
67054;SHT31;53960;51.826;5.850;2024-01-30T03:09:46;8.64;92.65
67054;SHT31;53960;51.826;5.850;2024-01-30T03:12:12;8.67;92.53
67054;SHT31;53960;51.826;5.850;2024-01-30T03:14:37;8.60;92.75
67054;SHT31;53960;51.826;5.850;2024-01-30T03:17:02;8.57;92.76
67054;SHT31;53960;51.826;5.850;2024-01-30T03:19:28;8.63;92.73
67054;SHT31;53960;51.826;5.850;2024-01-30T03:21:53;8.58;92.83
67054;SHT31;53960;51.826;5.850;2024-01-30T03:24:19;8.58;92.75
67054;SHT31;53960;51.826;5.850;2024-01-30T03:26:44;8.53;92.88
67054;SHT31;53960;51.826;5.850;2024-01-30T03:29:10;8.58;92.92
67054;SHT31;53960;51.826;5.850;2024-01-30T03:31:35;8.57;92.87
67054;SHT31;53960;51.826;5.850;2024-01-30T03:34:01;8.58;92.79
67054;SHT31;53960;51.826;5.850;2024-01-30T03:36:27;8.57;92.89
67054;SHT31;53960;51.826;5.850;2024-01-30T03:38:52;8.61;92.68
67054;SHT31;53960;51.826;5.850;2024-01-30T03:41:17;8.58;92.81
67054;SHT31;53960;51.826;5.850;2024-01-30T03:43:43;8.58;92.72
67054;SHT31;53960;51.826;5.850;2024-01-30T03:46:08;8.55;92.88
67054;SHT31;53960;51.826;5.850;2024-01-30T03:48:34;8.60;92.66
67054;SHT31;53960;51.826;5.850;2024-01-30T03:50:59;8.65;92.71
67054;SHT31;53960;51.826;5.850;2024-01-30T03:53:24;8.65;92.66
67054;SHT31;53960;51.826;5.850;2024-01-30T03:55:50;8.67;92.64
67054;SHT31;53960;51.826;5.850;2024-01-30T03:58:16;8.68;92.57
67054;SHT31;53960;51.826;5.850;2024-01-30T04:00:41;8.60;92.80
67054;SHT31;53960;51.826;5.850;2024-01-30T04:03:06;8.57;92.93
67054;SHT31;53960;51.826;5.850;2024-01-30T04:05:32;8.61;92.87
67054;SHT31;53960;51.826;5.850;2024-01-30T04:07:58;8.64;92.87
67054;SHT31;53960;51.826;5.850;2024-01-30T04:10:23;8.61;92.89
67054;SHT31;53960;51.826;5.850;2024-01-30T04:12:50;8.53;93.09
67054;SHT31;53960;51.826;5.850;2024-01-30T04:15:15;8.57;92.91
67054;SHT31;53960;51.826;5.850;2024-01-30T04:17:41;8.55;92.95
67054;SHT31;53960;51.826;5.850;2024-01-30T04:20:07;8.60;92.75
67054;SHT31;53960;51.826;5.850;2024-01-30T04:22:32;8.57;92.89
67054;SHT31;53960;51.826;5.850;2024-01-30T04:24:57;8.51;92.99
67054;SHT31;53960;51.826;5.850;2024-01-30T04:27:23;8.41;93.24
67054;SHT31;53960;51.826;5.850;2024-01-30T04:29:48;8.43;93.40
67054;SHT31;53960;51.826;5.850;2024-01-30T04:32:13;8.43;93.40
67054;SHT31;53960;51.826;5.850;2024-01-30T04:34:39;8.34;93.58
67054;SHT31;53960;51.826;5.850;2024-01-30T04:37:04;8.40;93.42
67054;SHT31;53960;51.826;5.850;2024-01-30T04:39:29;8.38;93.60
67054;SHT31;53960;51.826;5.850;2024-01-30T04:41:55;8.32;93.77
67054;SHT31;53960;51.826;5.850;2024-01-30T04:44:20;8.40;93.68
67054;SHT31;53960;51.826;5.850;2024-01-30T04:46:46;8.36;93.77
67054;SHT31;53960;51.826;5.850;2024-01-30T04:49:11;8.32;93.93
67054;SHT31;53960;51.826;5.850;2024-01-30T04:51:37;8.34;93.94
67054;SHT31;53960;51.826;5.850;2024-01-30T04:54:02;8.34;93.97
67054;SHT31;53960;51.826;5.850;2024-01-30T04:56:27;8.41;93.83
67054;SHT31;53960;51.826;5.850;2024-01-30T04:58:53;8.38;93.81
67054;SHT31;53960;51.826;5.850;2024-01-30T05:01:18;8.50;93.68
67054;SHT31;53960;51.826;5.850;2024-01-30T05:03:44;8.47;93.76
67054;SHT31;53960;51.826;5.850;2024-01-30T05:06:09;8.58;93.69
67054;SHT31;53960;51.826;5.850;2024-01-30T05:08:34;8.60;93.55
67054;SHT31;53960;51.826;5.850;2024-01-30T05:11:04;8.58;93.48
67054;SHT31;53960;51.826;5.850;2024-01-30T05:13:30;8.54;93.74
67054;SHT31;53960;51.826;5.850;2024-01-30T05:15:56;8.57;93.85
67054;SHT31;53960;51.826;5.850;2024-01-30T05:18:21;8.51;93.85
67054;SHT31;53960;51.826;5.850;2024-01-30T05:20:47;8.50;93.95
67054;SHT31;53960;51.826;5.850;2024-01-30T05:23:12;8.53;93.89
67054;SHT31;53960;51.826;5.850;2024-01-30T05:25:37;8.58;93.73
67054;SHT31;53960;51.826;5.850;2024-01-30T05:28:03;8.63;93.61
67054;SHT31;53960;51.826;5.850;2024-01-30T05:30:28;8.53;93.85
67054;SHT31;53960;51.826;5.850;2024-01-30T05:32:53;8.58;93.84
67054;SHT31;53960;51.826;5.850;2024-01-30T05:35:19;8.58;93.93
67054;SHT31;53960;51.826;5.850;2024-01-30T05:37:47;8.54;94.03
67054;SHT31;53960;51.826;5.850;2024-01-30T05:40:13;8.58;93.91
67054;SHT31;53960;51.826;5.850;2024-01-30T05:42:38;8.61;94.01
67054;SHT31;53960;51.826;5.850;2024-01-30T05:45:04;8.58;93.92
67054;SHT31;53960;51.826;5.850;2024-01-30T05:47:30;8.64;93.94
67054;SHT31;53960;51.826;5.850;2024-01-30T05:49:55;8.55;94.18
67054;SHT31;53960;51.826;5.850;2024-01-30T05:52:21;8.60;94.09
67054;SHT31;53960;51.826;5.850;2024-01-30T05:54:46;8.58;94.17
67054;SHT31;53960;51.826;5.850;2024-01-30T05:57:11;8.54;94.28
67054;SHT31;53960;51.826;5.850;2024-01-30T05:59:37;8.55;94.41
67054;SHT31;53960;51.826;5.850;2024-01-30T06:02:02;8.58;94.30
67054;SHT31;53960;51.826;5.850;2024-01-30T06:04:28;8.54;94.38
67054;SHT31;53960;51.826;5.850;2024-01-30T06:06:53;8.57;94.42
67054;SHT31;53960;51.826;5.850;2024-01-30T06:09:19;8.55;94.56
67054;SHT31;53960;51.826;5.850;2024-01-30T06:11:44;8.51;94.61
67054;SHT31;53960;51.826;5.850;2024-01-30T06:14:10;8.57;94.71
67054;SHT31;53960;51.826;5.850;2024-01-30T06:16:35;8.61;94.59
67054;SHT31;53960;51.826;5.850;2024-01-30T06:19:00;8.61;94.72
67054;SHT31;53960;51.826;5.850;2024-01-30T06:21:26;8.58;94.70
67054;SHT31;53960;51.826;5.850;2024-01-30T06:23:51;8.67;94.57
67054;SHT31;53960;51.826;5.850;2024-01-30T06:26:16;8.78;94.55
67054;SHT31;53960;51.826;5.850;2024-01-30T06:28:41;8.74;94.56
67054;SHT31;53960;51.826;5.850;2024-01-30T06:31:07;8.78;94.46
67054;SHT31;53960;51.826;5.850;2024-01-30T06:33:32;8.75;94.44
67054;SHT31;53960;51.826;5.850;2024-01-30T06:35:57;8.81;94.38
67054;SHT31;53960;51.826;5.850;2024-01-30T06:38:23;8.77;94.64
67054;SHT31;53960;51.826;5.850;2024-01-30T06:40:48;8.78;94.59
67054;SHT31;53960;51.826;5.850;2024-01-30T06:43:13;8.92;94.34
67054;SHT31;53960;51.826;5.850;2024-01-30T06:45:39;8.84;94.42
67054;SHT31;53960;51.826;5.850;2024-01-30T06:48:04;8.84;94.54
67054;SHT31;53960;51.826;5.850;2024-01-30T06:50:30;8.84;94.55
67054;SHT31;53960;51.826;5.850;2024-01-30T06:52:55;8.86;94.65
67054;SHT31;53960;51.826;5.850;2024-01-30T06:55:20;8.78;94.76
67054;SHT31;53960;51.826;5.850;2024-01-30T06:57:46;8.84;94.72
67054;SHT31;53960;51.826;5.850;2024-01-30T07:00:11;8.84;94.61
67054;SHT31;53960;51.826;5.850;2024-01-30T07:02:38;8.81;94.97
67054;SHT31;53960;51.826;5.850;2024-01-30T07:05:04;8.88;94.79
67054;SHT31;53960;51.826;5.850;2024-01-30T07:07:29;8.86;94.77
67054;SHT31;53960;51.826;5.850;2024-01-30T07:09:54;8.86;94.81
67054;SHT31;53960;51.826;5.850;2024-01-30T07:12:23;8.88;94.81
67054;SHT31;53960;51.826;5.850;2024-01-30T07:14:50;8.84;94.99
67054;SHT31;53960;51.826;5.850;2024-01-30T07:17:16;8.91;94.88
67054;SHT31;53960;51.826;5.850;2024-01-30T07:19:41;8.84;94.99
67054;SHT31;53960;51.826;5.850;2024-01-30T07:22:07;8.82;95.10
67054;SHT31;53960;51.826;5.850;2024-01-30T07:24:33;8.77;95.19
67054;SHT31;53960;51.826;5.850;2024-01-30T07:26:58;8.85;95.06
67054;SHT31;53960;51.826;5.850;2024-01-30T07:29:23;8.86;95.06
67054;SHT31;53960;51.826;5.850;2024-01-30T07:31:48;8.96;94.79
67054;SHT31;53960;51.826;5.850;2024-01-30T07:34:14;8.93;94.75
67054;SHT31;53960;51.826;5.850;2024-01-30T07:36:39;8.91;94.99
67054;SHT31;53960;51.826;5.850;2024-01-30T07:39:04;8.93;94.98
67054;SHT31;53960;51.826;5.850;2024-01-30T07:41:30;8.92;94.94
67054;SHT31;53960;51.826;5.850;2024-01-30T07:43:55;8.86;95.36
67054;SHT31;53960;51.826;5.850;2024-01-30T07:46:20;8.88;95.19
67054;SHT31;53960;51.826;5.850;2024-01-30T07:48:46;8.86;95.31
67054;SHT31;53960;51.826;5.850;2024-01-30T07:51:11;8.88;95.31
67054;SHT31;53960;51.826;5.850;2024-01-30T07:53:37;8.91;95.44
67054;SHT31;53960;51.826;5.850;2024-01-30T07:56:02;8.89;95.35
67054;SHT31;53960;51.826;5.850;2024-01-30T07:58:27;8.91;95.38
67054;SHT31;53960;51.826;5.850;2024-01-30T08:00:53;8.91;95.42
67054;SHT31;53960;51.826;5.850;2024-01-30T08:03:19;8.93;95.35
67054;SHT31;53960;51.826;5.850;2024-01-30T08:05:44;8.92;95.35
67054;SHT31;53960;51.826;5.850;2024-01-30T08:08:09;8.92;95.63
67054;SHT31;53960;51.826;5.850;2024-01-30T08:10:36;8.98;95.58
67054;SHT31;53960;51.826;5.850;2024-01-30T08:13:01;8.99;95.50
67054;SHT31;53960;51.826;5.850;2024-01-30T08:15:27;8.98;95.55
67054;SHT31;53960;51.826;5.850;2024-01-30T08:17:52;9.11;95.43
67054;SHT31;53960;51.826;5.850;2024-01-30T08:20:23;9.14;95.16
67054;SHT31;53960;51.826;5.850;2024-01-30T08:22:48;9.15;95.21
67054;SHT31;53960;51.826;5.850;2024-01-30T08:25:14;9.16;95.31
67054;SHT31;53960;51.826;5.850;2024-01-30T08:27:39;9.18;95.37
67054;SHT31;53960;51.826;5.850;2024-01-30T08:30:06;9.18;95.46
67054;SHT31;53960;51.826;5.850;2024-01-30T08:32:31;9.25;95.55
67054;SHT31;53960;51.826;5.850;2024-01-30T08:34:57;9.25;95.61
67054;SHT31;53960;51.826;5.850;2024-01-30T08:37:23;9.32;95.47
67054;SHT31;53960;51.826;5.850;2024-01-30T08:39:48;9.36;95.42
67054;SHT31;53960;51.826;5.850;2024-01-30T08:42:14;9.40;95.42
67054;SHT31;53960;51.826;5.850;2024-01-30T08:44:39;9.42;95.30
67054;SHT31;53960;51.826;5.850;2024-01-30T08:47:05;9.43;95.11
67054;SHT31;53960;51.826;5.850;2024-01-30T08:49:30;9.43;95.19
67054;SHT31;53960;51.826;5.850;2024-01-30T08:51:56;9.47;95.19
67054;SHT31;53960;51.826;5.850;2024-01-30T08:54:21;9.48;95.25
67054;SHT31;53960;51.826;5.850;2024-01-30T08:56:47;9.51;95.21
67054;SHT31;53960;51.826;5.850;2024-01-30T08:59:12;9.57;95.11
67054;SHT31;53960;51.826;5.850;2024-01-30T09:01:37;9.58;95.17
67054;SHT31;53960;51.826;5.850;2024-01-30T09:04:03;9.64;95.06
67054;SHT31;53960;51.826;5.850;2024-01-30T09:06:28;9.69;95.12
67054;SHT31;53960;51.826;5.850;2024-01-30T09:08:54;9.66;95.16
67054;SHT31;53960;51.826;5.850;2024-01-30T09:11:19;9.73;95.08
67054;SHT31;53960;51.826;5.850;2024-01-30T09:13:44;9.73;95.15
67054;SHT31;53960;51.826;5.850;2024-01-30T09:16:10;9.70;95.26
67054;SHT31;53960;51.826;5.850;2024-01-30T09:18:35;9.75;95.23
67054;SHT31;53960;51.826;5.850;2024-01-30T09:21:01;9.77;95.23
67054;SHT31;53960;51.826;5.850;2024-01-30T09:23:27;9.77;95.32
67054;SHT31;53960;51.826;5.850;2024-01-30T09:25:53;9.83;95.25
67054;SHT31;53960;51.826;5.850;2024-01-30T09:28:18;9.87;95.15
67054;SHT31;53960;51.826;5.850;2024-01-30T09:30:43;9.91;94.96
67054;SHT31;53960;51.826;5.850;2024-01-30T09:33:09;9.91;94.99
67054;SHT31;53960;51.826;5.850;2024-01-30T09:35:35;9.91;95.00
67054;SHT31;53960;51.826;5.850;2024-01-30T09:38:01;9.94;95.02
67054;SHT31;53960;51.826;5.850;2024-01-30T09:40:26;9.97;94.99
67054;SHT31;53960;51.826;5.850;2024-01-30T09:42:54;9.98;94.87
67054;SHT31;53960;51.826;5.850;2024-01-30T09:45:21;9.99;94.98
67054;SHT31;53960;51.826;5.850;2024-01-30T09:47:48;10.04;94.90
67054;SHT31;53960;51.826;5.850;2024-01-30T09:50:15;10.02;94.94
67054;SHT31;53960;51.826;5.850;2024-01-30T09:52:40;10.02;95.08
67054;SHT31;53960;51.826;5.850;2024-01-30T09:55:07;9.99;95.16
67054;SHT31;53960;51.826;5.850;2024-01-30T09:57:34;9.99;95.26
67054;SHT31;53960;51.826;5.850;2024-01-30T09:59:59;9.98;95.37
67054;SHT31;53960;51.826;5.850;2024-01-30T10:02:24;10.05;95.40
67054;SHT31;53960;51.826;5.850;2024-01-30T10:04:51;10.09;95.39
67054;SHT31;53960;51.826;5.850;2024-01-30T10:07:20;10.15;95.32
67054;SHT31;53960;51.826;5.850;2024-01-30T10:09:46;10.16;95.22
67054;SHT31;53960;51.826;5.850;2024-01-30T10:12:12;10.25;95.19
67054;SHT31;53960;51.826;5.850;2024-01-30T10:14:41;10.31;95.29
67054;SHT31;53960;51.826;5.850;2024-01-30T10:17:08;10.28;95.20
67054;SHT31;53960;51.826;5.850;2024-01-30T10:19:33;10.36;95.03
67054;SHT31;53960;51.826;5.850;2024-01-30T10:22:03;10.41;95.00
67054;SHT31;53960;51.826;5.850;2024-01-30T10:24:28;10.46;94.87
67054;SHT31;53960;51.826;5.850;2024-01-30T10:26:57;10.48;94.91
67054;SHT31;53960;51.826;5.850;2024-01-30T10:29:22;10.50;94.85
67054;SHT31;53960;51.826;5.850;2024-01-30T10:32:04;10.53;94.92
67054;SHT31;53960;51.826;5.850;2024-01-30T10:34:30;10.49;95.04
67054;SHT31;53960;51.826;5.850;2024-01-30T10:36:59;10.50;95.09
67054;SHT31;53960;51.826;5.850;2024-01-30T10:39:28;10.46;95.29
67054;SHT31;53960;51.826;5.850;2024-01-30T10:41:56;10.50;95.13
67054;SHT31;53960;51.826;5.850;2024-01-30T10:44:22;10.49;95.23
67054;SHT31;53960;51.826;5.850;2024-01-30T10:46:52;10.57;95.16
67054;SHT31;53960;51.826;5.850;2024-01-30T10:49:21;10.62;95.07
67054;SHT31;53960;51.826;5.850;2024-01-30T10:51:47;10.63;95.14
67054;SHT31;53960;51.826;5.850;2024-01-30T10:54:14;10.72;95.08
67054;SHT31;53960;51.826;5.850;2024-01-30T10:56:41;10.83;94.95
67054;SHT31;53960;51.826;5.850;2024-01-30T10:59:08;10.87;94.81
67054;SHT31;53960;51.826;5.850;2024-01-30T11:01:34;10.89;94.86
67054;SHT31;53960;51.826;5.850;2024-01-30T11:04:00;11.00;94.67
67054;SHT31;53960;51.826;5.850;2024-01-30T11:06:26;11.14;94.16
67054;SHT31;53960;51.826;5.850;2024-01-30T11:09:01;11.10;94.11
67054;SHT31;53960;51.826;5.850;2024-01-30T11:11:29;11.17;93.85
67054;SHT31;53960;51.826;5.850;2024-01-30T11:13:54;11.32;93.15
67054;SHT31;53960;51.826;5.850;2024-01-30T11:16:19;11.35;92.58
67054;SHT31;53960;51.826;5.850;2024-01-30T11:18:50;11.46;92.41
67054;SHT31;53960;51.826;5.850;2024-01-30T11:21:16;11.50;92.34
67054;SHT31;53960;51.826;5.850;2024-01-30T11:23:42;11.58;92.02
67054;SHT31;53960;51.826;5.850;2024-01-30T11:26:10;11.57;91.94
67054;SHT31;53960;51.826;5.850;2024-01-30T11:28:37;11.61;91.88
67054;SHT31;53960;51.826;5.850;2024-01-30T11:31:06;11.61;92.12
67054;SHT31;53960;51.826;5.850;2024-01-30T11:33:36;11.61;92.14
67054;SHT31;53960;51.826;5.850;2024-01-30T11:36:02;11.55;92.36
67054;SHT31;53960;51.826;5.850;2024-01-30T11:38:28;11.61;92.25
67054;SHT31;53960;51.826;5.850;2024-01-30T11:40:56;11.68;91.14
67054;SHT31;53960;51.826;5.850;2024-01-30T11:43:22;11.76;91.06
67054;SHT31;53960;51.826;5.850;2024-01-30T11:45:49;11.76;90.41
67054;SHT31;53960;51.826;5.850;2024-01-30T11:48:14;11.82;90.10
67054;SHT31;53960;51.826;5.850;2024-01-30T11:50:40;11.82;89.61
67054;SHT31;53960;51.826;5.850;2024-01-30T11:53:09;11.89;89.24
67054;SHT31;53960;51.826;5.850;2024-01-30T11:55:35;11.93;88.69
67054;SHT31;53960;51.826;5.850;2024-01-30T11:58:02;11.96;88.04
67054;SHT31;53960;51.826;5.850;2024-01-30T12:00:29;11.94;87.48
67054;SHT31;53960;51.826;5.850;2024-01-30T12:02:56;11.97;87.30
67054;SHT31;53960;51.826;5.850;2024-01-30T12:05:22;11.87;87.75
67054;SHT31;53960;51.826;5.850;2024-01-30T12:07:48;11.87;87.86
67054;SHT31;53960;51.826;5.850;2024-01-30T12:10:14;11.86;88.13
67054;SHT31;53960;51.826;5.850;2024-01-30T12:12:41;11.83;88.34
67054;SHT31;53960;51.826;5.850;2024-01-30T12:15:08;11.87;88.06
67054;SHT31;53960;51.826;5.850;2024-01-30T12:17:34;11.86;88.31
67054;SHT31;53960;51.826;5.850;2024-01-30T12:20:13;11.89;88.22
67054;SHT31;53960;51.826;5.850;2024-01-30T12:22:40;11.90;88.21
67054;SHT31;53960;51.826;5.850;2024-01-30T12:25:10;11.90;88.15
67054;SHT31;53960;51.826;5.850;2024-01-30T12:27:37;11.81;88.44
67054;SHT31;53960;51.826;5.850;2024-01-30T12:30:10;11.79;88.38
67054;SHT31;53960;51.826;5.850;2024-01-30T12:32:45;11.72;88.54
67054;SHT31;53960;51.826;5.850;2024-01-30T12:35:18;11.72;88.47
67054;SHT31;53960;51.826;5.850;2024-01-30T12:37:45;11.71;88.07
67054;SHT31;53960;51.826;5.850;2024-01-30T12:40:12;11.75;86.87
67054;SHT31;53960;51.826;5.850;2024-01-30T12:42:43;11.81;84.66
67054;SHT31;53960;51.826;5.850;2024-01-30T12:45:11;11.78;84.57
67054;SHT31;53960;51.826;5.850;2024-01-30T12:47:36;11.72;84.51
67054;SHT31;53960;51.826;5.850;2024-01-30T12:50:01;11.78;84.18
67054;SHT31;53960;51.826;5.850;2024-01-30T12:52:27;11.85;83.61
67054;SHT31;53960;51.826;5.850;2024-01-30T12:54:52;11.94;82.41
67054;SHT31;53960;51.826;5.850;2024-01-30T12:57:18;12.07;81.64
67054;SHT31;53960;51.826;5.850;2024-01-30T12:59:44;12.21;81.08
67054;SHT31;53960;51.826;5.850;2024-01-30T13:02:10;12.16;81.92
67054;SHT31;53960;51.826;5.850;2024-01-30T13:04:36;12.12;83.13
67054;SHT31;53960;51.826;5.850;2024-01-30T13:07:02;12.06;83.89
67054;SHT31;53960;51.826;5.850;2024-01-30T13:09:29;11.87;84.24
67054;SHT31;53960;51.826;5.850;2024-01-30T13:11:54;11.75;84.95
67054;SHT31;53960;51.826;5.850;2024-01-30T13:14:20;11.59;85.48
67054;SHT31;53960;51.826;5.850;2024-01-30T13:16:45;11.62;85.31
67054;SHT31;53960;51.826;5.850;2024-01-30T13:19:10;11.69;84.86
67054;SHT31;53960;51.826;5.850;2024-01-30T13:21:36;11.63;84.97
67054;SHT31;53960;51.826;5.850;2024-01-30T13:24:01;11.59;85.38
67054;SHT31;53960;51.826;5.850;2024-01-30T13:26:26;11.50;85.16
67054;SHT31;53960;51.826;5.850;2024-01-30T13:28:52;11.48;84.83
67054;SHT31;53960;51.826;5.850;2024-01-30T13:31:17;11.44;84.66
67054;SHT31;53960;51.826;5.850;2024-01-30T13:33:44;11.35;83.82
67054;SHT31;53960;51.826;5.850;2024-01-30T13:36:10;11.30;83.80
67054;SHT31;53960;51.826;5.850;2024-01-30T13:38:37;11.30;83.41
67054;SHT31;53960;51.826;5.850;2024-01-30T13:41:02;11.28;83.30
67054;SHT31;53960;51.826;5.850;2024-01-30T13:43:28;11.30;81.94
67054;SHT31;53960;51.826;5.850;2024-01-30T13:45:53;11.32;81.50
67054;SHT31;53960;51.826;5.850;2024-01-30T13:48:19;11.34;81.38
67054;SHT31;53960;51.826;5.850;2024-01-30T13:50:44;11.35;81.68
67054;SHT31;53960;51.826;5.850;2024-01-30T13:53:11;11.32;81.05
67054;SHT31;53960;51.826;5.850;2024-01-30T13:55:36;11.27;79.96
67054;SHT31;53960;51.826;5.850;2024-01-30T13:58:01;11.24;79.39
67054;SHT31;53960;51.826;5.850;2024-01-30T14:00:27;11.21;79.67
67054;SHT31;53960;51.826;5.850;2024-01-30T14:02:52;11.17;79.91
67054;SHT31;53960;51.826;5.850;2024-01-30T14:05:20;11.08;80.77
67054;SHT31;53960;51.826;5.850;2024-01-30T14:07:46;11.06;81.05
67054;SHT31;53960;51.826;5.850;2024-01-30T14:10:12;10.96;81.64
67054;SHT31;53960;51.826;5.850;2024-01-30T14:12:37;10.93;82.96
67054;SHT31;53960;51.826;5.850;2024-01-30T14:15:03;10.80;84.65
67054;SHT31;53960;51.826;5.850;2024-01-30T14:17:28;10.74;85.70
67054;SHT31;53960;51.826;5.850;2024-01-30T14:19:53;10.66;86.41
67054;SHT31;53960;51.826;5.850;2024-01-30T14:22:19;10.63;86.90
67054;SHT31;53960;51.826;5.850;2024-01-30T14:24:44;10.53;87.53
67054;SHT31;53960;51.826;5.850;2024-01-30T14:27:10;10.52;87.89
67054;SHT31;53960;51.826;5.850;2024-01-30T14:29:35;10.49;88.21
67054;SHT31;53960;51.826;5.850;2024-01-30T14:32:01;10.41;88.55
67054;SHT31;53960;51.826;5.850;2024-01-30T14:34:26;10.34;88.89
67054;SHT31;53960;51.826;5.850;2024-01-30T14:36:52;10.31;89.13
67054;SHT31;53960;51.826;5.850;2024-01-30T14:39:18;10.28;89.41
67054;SHT31;53960;51.826;5.850;2024-01-30T14:41:43;10.25;89.80
67054;SHT31;53960;51.826;5.850;2024-01-30T14:44:09;10.24;89.95
67054;SHT31;53960;51.826;5.850;2024-01-30T14:46:35;10.24;89.79
67054;SHT31;53960;51.826;5.850;2024-01-30T14:49:00;10.24;90.04
67054;SHT31;53960;51.826;5.850;2024-01-30T14:51:28;10.16;90.05
67054;SHT31;53960;51.826;5.850;2024-01-30T14:53:54;10.16;90.49
67054;SHT31;53960;51.826;5.850;2024-01-30T14:56:20;10.21;90.01
67054;SHT31;53960;51.826;5.850;2024-01-30T14:58:46;10.21;89.97
67054;SHT31;53960;51.826;5.850;2024-01-30T15:01:11;10.21;89.98
67054;SHT31;53960;51.826;5.850;2024-01-30T15:03:37;10.18;89.95
67054;SHT31;53960;51.826;5.850;2024-01-30T15:06:05;10.15;89.75
67054;SHT31;53960;51.826;5.850;2024-01-30T15:08:30;10.09;89.98
67054;SHT31;53960;51.826;5.850;2024-01-30T15:10:56;10.09;89.87
67054;SHT31;53960;51.826;5.850;2024-01-30T15:13:22;10.18;89.10
67054;SHT31;53960;51.826;5.850;2024-01-30T15:15:48;10.18;88.83
67054;SHT31;53960;51.826;5.850;2024-01-30T15:18:13;10.14;89.02
67054;SHT31;53960;51.826;5.850;2024-01-30T15:20:38;10.15;88.90
67054;SHT31;53960;51.826;5.850;2024-01-30T15:23:04;10.16;88.81
67054;SHT31;53960;51.826;5.850;2024-01-30T15:25:29;10.12;88.98
67054;SHT31;53960;51.826;5.850;2024-01-30T15:27:55;10.09;89.09
67054;SHT31;53960;51.826;5.850;2024-01-30T15:30:20;10.02;89.35